createdAt,value
2019-04-23T00:01:15.318Z,37.35
2019-04-23T00:03:41.680Z,36.17
2019-04-23T00:06:15.208Z,36.80
2019-04-23T00:08:54.488Z,38.38
2019-04-23T00:11:17.205Z,36.77
2019-04-23T00:13:44.198Z,36.50
2019-04-23T00:18:42.306Z,36.28
2019-04-23T00:21:26.652Z,37.58
2019-04-23T00:24:17.551Z,36.80
2019-04-23T00:26:38.328Z,35.25
2019-04-23T00:29:05.399Z,27.42
2019-04-23T00:31:43.184Z,27.87
2019-04-23T00:34:01.195Z,27.27
2019-04-23T00:36:44.336Z,36.30
2019-04-23T00:39:15.399Z,34.95
2019-04-23T00:44:04.209Z,36.77
2019-04-23T00:49:05.847Z,38.15
2019-04-23T00:51:33.217Z,39.03
2019-04-23T00:54:09.170Z,38.28
2019-04-23T00:57:01.141Z,36.20
2019-04-23T00:59:00.706Z,28.75
2019-04-23T01:01:45.811Z,37.48
2019-04-23T01:04:13.597Z,37.23
2019-04-23T01:06:29.011Z,36.50
2019-04-23T01:09:08.815Z,27.85
2019-04-23T01:11:32.419Z,29.32
2019-04-23T01:14:14.860Z,37.42
2019-04-23T01:16:33.286Z,38.92
2019-04-23T01:19:28.478Z,37.13
2019-04-23T01:21:28.557Z,37.63
2019-04-23T01:24:06.180Z,28.17
2019-04-23T01:27:22.397Z,37.70
2019-04-23T01:29:44.020Z,35.20
2019-04-23T01:32:16.060Z,31.65
2019-04-23T01:34:51.682Z,36.60
2019-04-23T01:37:20.898Z,36.53
2019-04-23T01:39:46.691Z,37.17
2019-04-23T01:42:25.475Z,36.03
2019-04-23T01:44:50.341Z,26.12
2019-04-23T01:47:18.730Z,37.55
2019-04-23T01:49:54.650Z,36.05
2019-04-23T01:52:29.476Z,37.88
2019-04-23T01:54:59.122Z,27.93
2019-04-23T01:57:23.287Z,27.67
2019-04-23T01:59:57.999Z,28.25
2019-04-23T02:02:27.524Z,36.33
2019-04-23T02:04:55.756Z,36.53
2019-04-23T02:07:33.723Z,28.85
2019-04-23T02:09:55.329Z,35.83
2019-04-23T02:12:28.913Z,36.98
2019-04-23T02:14:57.288Z,26.82
2019-04-23T02:17:24.741Z,37.65
2019-04-23T02:20:01.437Z,36.93
2019-04-23T02:22:40.512Z,37.20
2019-04-23T02:25:26.547Z,36.75
2019-04-23T02:27:58.285Z,37.20
2019-04-23T02:30:48.933Z,38.08
2019-04-23T02:33:10.701Z,39.23
2019-04-23T02:38:00.807Z,37.45
2019-04-23T02:45:27.511Z,37.08
2019-04-23T02:48:17.320Z,38.50
2019-04-23T02:50:34.704Z,28.98
2019-04-23T02:55:39.415Z,39.03
2019-04-23T02:58:00.692Z,36.00
2019-04-23T03:00:55.350Z,38.00
2019-04-23T03:03:14.146Z,36.93
2019-04-23T03:05:24.984Z,33.02
2019-04-23T03:10:32.369Z,29.77
2019-04-23T03:13:10.204Z,30.70
2019-04-23T03:15:50.475Z,28.83
2019-04-23T03:18:42.209Z,44.75
2019-04-23T03:26:38.247Z,41.00
2019-04-23T03:29:04.423Z,40.70
2019-04-23T03:32:45.827Z,41.53
2019-04-23T03:36:48.926Z,31.27
2019-04-23T03:38:52.017Z,39.95
2019-04-23T03:46:33.923Z,28.75
2019-04-23T03:49:03.773Z,28.80
2019-04-23T03:51:38.354Z,39.42
2019-04-23T03:56:44.749Z,29.15
2019-04-23T03:59:27.158Z,38.17
2019-04-23T04:04:23.064Z,35.08
2019-04-23T04:06:43.172Z,48.25
2019-04-23T04:09:24.228Z,41.50
2019-04-23T04:16:42.559Z,42.00
2019-04-23T04:26:49.292Z,38.48
2019-04-23T04:29:11.827Z,39.67
2019-04-23T04:31:45.628Z,43.05
2019-04-23T04:34:21.845Z,46.10
2019-04-23T04:36:45.917Z,48.25
2019-04-23T04:39:10.070Z,50.12
2019-04-23T04:41:40.464Z,48.40
2019-04-23T04:44:36.139Z,48.68
2019-04-23T04:51:53.613Z,44.03
2019-04-23T04:59:09.267Z,50.05
2019-04-23T05:01:53.901Z,46.83
2019-04-23T05:04:20.242Z,40.88
2019-04-23T05:06:56.654Z,40.35
2019-04-23T05:14:13.580Z,33.25
2019-04-23T05:16:44.488Z,33.73
2019-04-23T05:19:23.462Z,33.33
2019-04-23T05:24:21.401Z,31.35
2019-04-23T05:26:33.409Z,32.58
2019-04-23T05:29:11.544Z,30.60
2019-04-23T05:31:42.674Z,29.02
2019-04-23T05:34:07.793Z,29.23
2019-04-23T05:36:52.081Z,28.70
2019-04-23T05:39:24.332Z,29.30
2019-04-23T05:46:45.423Z,28.20
2019-04-23T05:49:20.262Z,25.15
2019-04-23T05:51:50.752Z,22.17
2019-04-23T05:54:20.563Z,26.35
2019-04-23T05:56:46.786Z,21.87
2019-04-23T05:59:21.593Z,21.20
2019-04-23T06:07:16.993Z,21.73
2019-04-23T06:09:21.068Z,19.17
2019-04-23T06:14:29.079Z,23.47
2019-04-23T06:16:59.019Z,18.05
2019-04-23T06:19:17.145Z,18.10
2019-04-23T06:21:57.764Z,19.67
2019-04-23T06:24:39.770Z,17.07
2019-04-23T06:26:54.276Z,18.12
2019-04-23T06:29:25.482Z,17.40
2019-04-23T06:34:31.581Z,17.52
2019-04-23T06:36:50.964Z,19.15
2019-04-23T06:39:26.804Z,27.98
2019-04-23T06:41:54.747Z,16.85
2019-04-23T06:49:37.002Z,17.62
2019-04-23T06:54:37.428Z,15.90
2019-04-23T06:57:10.560Z,14.75
2019-04-23T06:59:34.000Z,16.80
2019-04-23T07:02:10.107Z,13.38
2019-04-23T07:04:36.081Z,15.25
2019-04-23T07:07:24.380Z,16.10
2019-04-23T07:09:27.696Z,14.50
2019-04-23T07:12:05.245Z,13.88
2019-04-23T07:14:35.819Z,15.10
2019-04-23T07:17:03.932Z,14.20
2019-04-23T07:19:35.486Z,13.80
2019-04-23T07:22:13.037Z,18.55
2019-04-23T07:24:36.254Z,15.53
2019-04-23T07:27:03.282Z,14.15
2019-04-23T07:29:47.057Z,14.68
2019-04-23T07:32:05.284Z,14.55
2019-04-23T07:34:43.722Z,13.88
2019-04-23T07:37:05.188Z,13.62
2019-04-23T07:39:58.642Z,13.58
2019-04-23T07:42:24.690Z,13.58
2019-04-23T07:45:02.516Z,13.75
2019-04-23T07:48:00.244Z,14.35
2019-04-23T07:52:56.101Z,14.73
2019-04-23T07:55:32.553Z,9.98
2019-04-23T07:57:53.626Z,14.18
2019-04-23T08:00:29.790Z,12.65
2019-04-23T08:03:04.217Z,12.70
2019-04-23T08:05:33.296Z,12.18
2019-04-23T08:07:49.425Z,13.25
2019-04-23T08:10:24.652Z,13.85
2019-04-23T08:12:55.500Z,15.83
2019-04-23T08:15:23.409Z,13.08
2019-04-23T08:17:56.048Z,12.47
2019-04-23T08:20:23.327Z,20.65
2019-04-23T08:22:53.571Z,18.48
2019-04-23T08:25:44.460Z,15.25
2019-04-23T08:28:16.966Z,14.80
2019-04-23T08:30:46.510Z,14.23
2019-04-23T08:33:15.316Z,16.52
2019-04-23T08:35:50.653Z,16.70
2019-04-23T08:38:26.408Z,14.35
2019-04-23T08:40:59.162Z,13.50
2019-04-23T08:43:29.602Z,13.98
2019-04-23T08:45:55.001Z,15.20
2019-04-23T08:50:50.719Z,12.68
2019-04-23T08:58:36.836Z,12.20
2019-04-23T09:06:10.759Z,14.13
2019-04-23T09:08:27.861Z,20.82
2019-04-23T09:11:04.740Z,13.75
2019-04-23T09:15:56.695Z,12.30
2019-04-23T09:18:27.850Z,12.75
2019-04-23T09:20:58.610Z,12.98
2019-04-23T09:23:34.400Z,11.80
2019-04-23T09:25:57.538Z,13.88
2019-04-23T09:31:11.513Z,13.10
2019-04-23T09:36:38.004Z,16.67
2019-04-23T09:39:07.586Z,14.78
2019-04-23T09:41:31.397Z,13.15
2019-04-23T09:44:27.597Z,14.30
2019-04-23T09:46:57.068Z,12.85
2019-04-23T09:49:20.547Z,14.15
2019-04-23T09:51:51.426Z,14.73
2019-04-23T09:56:49.503Z,12.95
2019-04-23T09:59:41.211Z,14.73
2019-04-23T10:01:48.399Z,13.28
2019-04-23T10:04:08.628Z,10.60
2019-04-23T10:06:30.708Z,19.55
2019-04-23T10:09:00.148Z,13.28
2019-04-23T10:11:28.266Z,12.45
2019-04-23T10:13:58.615Z,12.82
2019-04-23T10:16:30.230Z,12.98
2019-04-23T10:19:00.661Z,12.43
2019-04-23T10:21:29.253Z,15.83
2019-04-23T10:23:59.303Z,13.05
2019-04-23T10:26:28.357Z,14.70
2019-04-23T10:29:02.314Z,14.10
2019-04-23T10:31:31.551Z,11.60
2019-04-23T10:34:01.953Z,11.65
2019-04-23T10:36:32.532Z,16.25
2019-04-23T10:39:08.868Z,12.23
2019-04-23T10:41:32.681Z,12.93
2019-04-23T10:44:04.953Z,14.45
2019-04-23T10:47:06.740Z,14.07
2019-04-23T10:49:47.741Z,13.38
2019-04-23T10:52:17.048Z,12.53
2019-04-23T10:54:53.845Z,12.75
2019-04-23T10:57:07.375Z,13.25
2019-04-23T10:59:44.992Z,12.33
2019-04-23T11:02:35.085Z,12.50
2019-04-23T11:04:54.281Z,12.37
2019-04-23T11:07:28.395Z,12.80
2019-04-23T11:09:55.712Z,12.78
2019-04-23T11:12:37.504Z,13.22
2019-04-23T11:14:58.167Z,12.75
2019-04-23T11:17:33.021Z,12.07
2019-04-23T11:20:07.298Z,12.93
2019-04-23T11:25:02.173Z,13.62
2019-04-23T11:27:28.421Z,12.68
2019-04-23T11:30:00.083Z,13.18
2019-04-23T11:37:43.421Z,14.38
2019-04-23T11:40:03.711Z,13.28
2019-04-23T11:42:28.080Z,13.70
2019-04-23T11:50:09.656Z,14.33
2019-04-23T11:52:36.365Z,14.98
2019-04-23T11:55:08.401Z,15.60
2019-04-23T11:59:59.501Z,13.88
2019-04-23T12:02:38.933Z,14.55
2019-04-23T12:05:11.684Z,14.78
2019-04-23T12:07:50.818Z,13.83
2019-04-23T12:10:36.635Z,14.75
2019-04-23T12:12:44.614Z,14.75
2019-04-23T12:15:26.166Z,14.13
2019-04-23T12:17:50.929Z,13.62
2019-04-23T12:20:31.870Z,14.23
2019-04-23T12:25:32.859Z,14.68
2019-04-23T12:27:42.291Z,13.60
2019-04-23T12:35:25.758Z,14.40
2019-04-23T12:38:00.940Z,13.35
2019-04-23T12:40:35.301Z,13.05
2019-04-23T12:58:09.865Z,13.85
2019-04-23T13:00:36.329Z,12.05
2019-04-23T13:05:32.851Z,13.55
2019-04-23T13:08:25.554Z,13.65
2019-04-23T13:10:42.309Z,13.20
2019-04-23T13:15:40.517Z,12.95
2019-04-23T13:18:15.353Z,13.38
2019-04-23T13:20:38.508Z,13.15
2019-04-23T13:23:16.882Z,14.35
2019-04-23T13:28:21.088Z,12.18
2019-04-23T13:30:54.534Z,12.98
2019-04-23T13:33:38.031Z,12.40
2019-04-23T13:48:34.536Z,13.20
2019-04-23T13:51:03.430Z,12.65
2019-04-23T13:53:36.898Z,13.10
2019-04-23T13:55:52.990Z,14.75
2019-04-23T14:01:18.362Z,12.20
2019-04-23T14:06:05.515Z,13.00
2019-04-23T14:08:43.526Z,13.60
2019-04-23T14:11:02.192Z,12.73
2019-04-23T14:16:10.353Z,13.38
2019-04-23T14:21:15.044Z,14.15
2019-04-23T14:23:55.857Z,13.25
2019-04-23T14:26:18.592Z,13.83
2019-04-23T14:33:51.215Z,12.63
2019-04-23T14:36:07.586Z,13.62
2019-04-23T14:41:31.072Z,13.28
2019-04-23T14:43:48.764Z,13.20
2019-04-23T14:48:46.075Z,13.75
2019-04-23T14:53:43.891Z,14.23
2019-04-23T14:56:16.127Z,13.75
2019-04-23T14:58:56.955Z,14.95
2019-04-23T15:03:46.939Z,15.15
2019-04-23T15:06:33.197Z,14.23
2019-04-23T15:13:52.257Z,14.45
2019-04-23T15:16:26.665Z,14.80
2019-04-23T15:19:02.583Z,22.17
2019-04-23T15:24:00.523Z,13.90
2019-04-23T15:28:34.028Z,17.85
2019-04-23T15:31:30.735Z,14.18
2019-04-23T15:34:02.181Z,13.08
2019-04-23T15:36:51.365Z,13.38
2019-04-23T15:39:02.489Z,13.18
2019-04-23T15:41:31.768Z,13.58
2019-04-23T15:44:05.045Z,14.38
2019-04-23T15:49:07.984Z,14.73
2019-04-23T15:54:04.781Z,13.55
2019-04-23T15:56:51.939Z,13.60
2019-04-23T15:59:13.548Z,32.40
2019-04-23T16:01:34.664Z,13.40
2019-04-23T16:03:37.627Z,14.53
2019-04-23T16:06:07.858Z,13.28
2019-04-23T16:09:11.066Z,21.65
2019-04-23T16:14:17.561Z,12.85
2019-04-23T16:16:38.739Z,25.57
2019-04-23T16:19:17.602Z,13.05
2019-04-23T16:21:49.213Z,13.28
2019-04-23T16:24:13.519Z,13.00
2019-04-23T16:26:50.903Z,12.75
2019-04-23T16:29:25.750Z,13.43
2019-04-23T16:31:41.388Z,13.58
2019-04-23T16:34:29.139Z,11.97
2019-04-23T16:37:06.228Z,14.28
2019-04-23T16:39:52.381Z,12.63
2019-04-23T16:42:06.021Z,13.70
2019-04-23T16:44:41.314Z,13.15
2019-04-23T16:47:04.111Z,14.03
2019-04-23T16:49:36.851Z,12.93
2019-04-23T16:52:01.942Z,13.75
2019-04-23T16:57:22.779Z,15.30
2019-04-23T17:02:11.992Z,13.43
2019-04-23T17:07:03.730Z,15.58
2019-04-23T17:12:09.151Z,14.55
2019-04-23T17:14:30.915Z,15.15
2019-04-23T17:16:59.940Z,14.43
2019-04-23T17:19:41.094Z,13.62
2019-04-23T17:22:13.249Z,13.68
2019-04-23T17:24:39.886Z,17.45
2019-04-23T17:27:16.846Z,13.95
2019-04-23T17:29:41.336Z,14.85
2019-04-23T17:32:09.890Z,14.55
2019-04-23T17:37:26.798Z,15.95
2019-04-23T17:39:57.193Z,15.25
2019-04-23T17:42:27.297Z,15.88
2019-04-23T17:45:16.882Z,15.58
2019-04-23T17:50:10.767Z,15.60
2019-04-23T17:52:34.557Z,17.05
2019-04-23T17:55:01.741Z,15.20
2019-04-23T18:00:16.048Z,17.90
2019-04-23T18:05:13.136Z,18.10
2019-04-23T18:10:22.923Z,17.87
2019-04-23T18:12:43.591Z,19.20
2019-04-23T18:15:04.842Z,23.95
2019-04-23T18:17:41.041Z,28.92
2019-04-23T18:22:46.608Z,26.12
2019-04-23T18:27:57.915Z,30.35
2019-04-23T18:33:56.673Z,29.23
2019-04-23T18:35:47.558Z,31.68
2019-04-23T18:38:25.630Z,34.75
2019-04-23T18:41:02.127Z,41.85
2019-04-23T18:46:04.321Z,41.28
2019-04-23T18:51:03.477Z,30.37
2019-04-23T18:53:43.657Z,30.02
2019-04-23T18:56:06.545Z,26.68
2019-04-23T18:58:46.470Z,28.17
2019-04-23T19:03:48.110Z,29.20
2019-04-23T19:06:31.992Z,31.85
2019-04-23T19:11:50.940Z,29.25
2019-04-23T19:14:10.897Z,30.70
2019-04-23T19:19:09.633Z,38.67
2019-04-23T19:22:07.017Z,35.58
2019-04-23T19:24:21.335Z,34.60
2019-04-23T19:29:23.671Z,33.28
2019-04-23T19:31:58.261Z,33.53
2019-04-23T19:34:36.501Z,32.98
2019-04-23T19:42:03.700Z,34.25
2019-04-23T19:44:42.700Z,24.65
2019-04-23T19:49:37.074Z,33.65
2019-04-23T19:52:20.997Z,31.75
2019-04-23T19:54:47.678Z,33.65
2019-04-23T20:04:40.997Z,32.08
2019-04-23T20:07:31.166Z,29.50
2019-04-23T20:12:15.667Z,28.20
2019-04-23T20:14:50.449Z,30.70
2019-04-23T20:17:34.448Z,31.60
2019-04-23T20:22:25.456Z,34.65
2019-04-23T20:27:18.357Z,33.02
2019-04-23T20:31:57.239Z,29.12
2019-04-23T20:37:58.012Z,29.60
2019-04-23T20:45:02.612Z,28.30
2019-04-23T20:50:10.226Z,26.70
2019-04-23T20:52:24.431Z,29.55
2019-04-23T20:55:08.123Z,30.23
2019-04-23T20:57:44.022Z,29.92
2019-04-23T21:00:12.773Z,28.95
2019-04-23T21:03:16.914Z,29.82
2019-04-23T21:07:57.636Z,21.37
2019-04-23T21:10:28.577Z,29.70
2019-04-23T21:17:58.115Z,29.82
2019-04-23T21:20:34.051Z,30.17
2019-04-23T21:23:04.663Z,31.85
2019-04-23T21:25:22.194Z,30.05
2019-04-23T21:28:04.761Z,21.85
2019-04-23T21:31:00.851Z,29.40
2019-04-23T21:33:15.778Z,26.93
2019-04-23T21:41:39.624Z,29.25
2019-04-23T21:44:10.464Z,27.93
2019-04-23T21:46:45.235Z,28.07
2019-04-23T21:54:04.888Z,29.50
2019-04-23T21:56:33.254Z,28.75
2019-04-23T21:59:02.588Z,29.23
2019-04-23T22:01:37.166Z,28.98
2019-04-23T22:06:41.365Z,28.45
2019-04-23T22:14:09.898Z,29.10
2019-04-23T22:16:40.950Z,28.85
2019-04-23T22:21:43.029Z,29.00
2019-04-23T22:26:34.167Z,28.65
2019-04-23T22:29:14.276Z,29.65
2019-04-23T22:34:15.770Z,25.08
2019-04-23T22:36:43.668Z,26.35
2019-04-23T22:39:10.139Z,27.32
2019-04-23T22:41:41.683Z,25.90
2019-04-23T22:46:52.502Z,25.25
2019-04-23T22:49:23.247Z,25.72
2019-04-23T22:54:14.126Z,24.60
2019-04-23T22:56:54.222Z,24.95
2019-04-23T22:59:28.148Z,27.35
2019-04-23T23:01:57.133Z,27.42
2019-04-23T23:04:23.616Z,26.68
2019-04-23T23:11:54.741Z,27.40
2019-04-23T23:14:24.192Z,28.25
2019-04-23T23:16:55.149Z,21.82
2019-04-23T23:24:21.606Z,28.12
2019-04-23T23:29:19.790Z,27.32
2019-04-23T23:34:25.636Z,27.52
2019-04-23T23:37:00.290Z,26.48
2019-04-23T23:39:28.798Z,28.38
2019-04-23T23:41:58.973Z,25.82
2019-04-23T23:47:03.110Z,26.00
2019-04-23T23:49:24.362Z,25.62
2019-04-23T23:51:57.140Z,25.12
2019-04-23T23:54:43.842Z,26.23
2019-04-23T23:59:35.082Z,25.68
